Time;durP1;ratioP1;P1;durP2;ratioP2;P2;SDS_P1;SDS_P2;PMS_P1;PMS_P2;Temp;Humidity;BMP_temperature;BMP_pressure;BME280_temperature;BME280_humidity;BME280_pressure;Samples;Min_cycle;Max_cycle;Signal;HPM_P1;HPM_P2
2022/01/18 00:01:23;;;;;;;15.27;11.55;;;;;;;;;;4928122;29;20524;-71
2022/01/18 00:03:51;;;;;;;16.23;10.60;;;;;;;;;;4927570;29;20088;-70
2022/01/18 00:06:18;;;;;;;14.20;11.52;;;;;;;;;;4915120;29;20063;-70
2022/01/18 00:08:46;;;;;;;16.38;12.13;;;;;;;;;;4922924;29;20052;-71
2022/01/18 00:11:13;;;;;;;18.05;11.93;;;;;;;;;;4915200;29;20087;-70
2022/01/18 00:13:46;;;;;;;17.65;12.75;;;;;;;;;;4913434;29;20079;-70
2022/01/18 00:16:30;;;;;;;16.52;11.82;;;;;;;;;;4913330;29;20060;-70
2022/01/18 00:19:01;;;;;;;14.93;11.32;;;;;;;;;;4925897;29;20103;-71
2022/01/18 00:24:01;;;;;;;14.90;11.25;;;;;;;;;;4927950;29;20076;-70
2022/01/18 00:26:31;;;;;;;16.95;11.07;;;;;;;;;;4929346;29;20060;-70
2022/01/18 00:29:05;;;;;;;16.77;11.40;;;;;;;;;;4916498;29;20135;-68
2022/01/18 00:39:14;;;;;;;19.48;11.43;;;;;;;;;;4918030;29;20336;-70
2022/01/18 00:41:41;;;;;;;11.35;10.13;;;;;;;;;;4931775;29;20135;-70
2022/01/18 00:44:09;;;;;;;15.80;9.93;;;;;;;;;;4912305;29;20063;-70
2022/01/18 00:46:37;;;;;;;14.35;10.07;;;;;;;;;;4899983;29;20155;-70
2022/01/18 00:49:05;;;;;;;15.68;11.85;;;;;;;;;;4931721;29;20051;-70
2022/01/18 00:51:37;;;;;;;16.75;11.20;;;;;;;;;;4932485;29;20044;-70
2022/01/18 00:54:05;;;;;;;14.35;10.68;;;;;;;;;;4930863;29;20063;-70
2022/01/18 00:56:33;;;;;;;16.10;11.85;;;;;;;;;;4931147;29;20110;-70
2022/01/18 00:59:00;;;;;;;14.85;10.90;;;;;;;;;;4917937;29;20086;-70
2022/01/18 01:01:29;;;;;;;11.35;9.07;;;;;;;;;;4926474;29;20048;-71
2022/01/18 01:04:01;;;;;;;13.70;9.50;;;;;;;;;;4930921;29;20080;-70
2022/01/18 01:06:30;;;;;;;12.25;8.73;;;;;;;;;;4917717;29;20417;-71
2022/01/18 01:08:57;;;;;;;12.88;9.90;;;;;;;;;;4930994;29;20036;-69
2022/01/18 01:11:25;;;;;;;14.75;8.13;;;;;;;;;;4931809;29;20056;-70
2022/01/18 01:13:54;;;;;;;9.88;8.38;;;;;;;;;;4931570;29;20052;-70
2022/01/18 01:19:12;;;;;;;16.33;7.95;;;;;;;;;;4930576;29;20044;-70
2022/01/18 01:35:29;;;;;;;12.30;8.80;;;;;;;;;;4916977;29;20115;-70
2022/01/18 01:43:31;;;;;;;9.98;7.85;;;;;;;;;;4917152;29;19926;-70
2022/01/18 01:45:59;;;;;;;11.73;8.90;;;;;;;;;;4927461;29;20066;-70
2022/01/18 01:48:27;;;;;;;11.68;8.10;;;;;;;;;;4935679;29;20040;-69
2022/01/18 01:51:05;;;;;;;7.03;6.35;;;;;;;;;;4934595;29;20060;-70
2022/01/18 01:53:33;;;;;;;8.05;7.00;;;;;;;;;;4919608;29;20047;-70
2022/01/18 01:56:01;;;;;;;12.68;6.68;;;;;;;;;;4934731;29;20047;-70
2022/01/18 01:58:29;;;;;;;6.18;5.57;;;;;;;;;;4934309;29;20051;-70
2022/01/18 02:01:02;;;;;;;7.38;6.05;;;;;;;;;;4934055;29;20134;-69
2022/01/18 02:03:30;;;;;;;8.20;6.70;;;;;;;;;;4935528;29;20416;-70
2022/01/18 02:05:57;;;;;;;8.85;7.05;;;;;;;;;;4935070;29;20560;-70
2022/01/18 02:08:24;;;;;;;10.68;6.55;;;;;;;;;;4935399;29;20067;-69
2022/01/18 02:10:51;;;;;;;8.82;6.78;;;;;;;;;;4933800;29;20048;-69
2022/01/18 02:13:18;;;;;;;7.68;6.68;;;;;;;;;;4933932;29;20058;-69
2022/01/18 02:16:12;;;;;;;10.15;7.43;;;;;;;;;;4933800;29;20702;-69
2022/01/18 02:24:14;;;;;;;9.55;8.52;;;;;;;;;;4934039;29;20456;-69
2022/01/18 02:26:46;;;;;;;15.05;8.98;;;;;;;;;;4933968;29;20080;-68
2022/01/18 02:29:16;;;;;;;10.15;8.07;;;;;;;;;;4932940;29;20048;-69
2022/01/18 02:31:47;;;;;;;12.52;8.82;;;;;;;;;;4935045;29;20082;-69
2022/01/18 02:34:19;;;;;;;9.80;8.10;;;;;;;;;;4932854;29;20047;-70
2022/01/18 02:36:50;;;;;;;8.48;7.43;;;;;;;;;;4935089;29;20052;-70
2022/01/18 02:39:23;;;;;;;7.72;6.93;;;;;;;;;;4933833;29;20047;-70
2022/01/18 02:42:11;;;;;;;10.55;8.05;;;;;;;;;;4933742;29;20048;-69
2022/01/18 02:44:41;;;;;;;13.10;8.02;;;;;;;;;;4914678;29;20158;-71
2022/01/18 02:47:10;;;;;;;11.35;8.02;;;;;;;;;;4928066;29;20501;-71
2022/01/18 02:49:41;;;;;;;11.80;9.20;;;;;;;;;;4915799;29;20127;-69
2022/01/18 02:52:11;;;;;;;11.60;8.35;;;;;;;;;;4914385;29;20063;-70
2022/01/18 02:54:41;;;;;;;11.18;8.50;;;;;;;;;;4914363;29;20048;-70
2022/01/18 02:57:14;;;;;;;8.25;7.43;;;;;;;;;;4915796;29;20083;-68
2022/01/18 03:05:15;;;;;;;10.07;7.78;;;;;;;;;;4914524;29;20059;-70
2022/01/18 03:07:46;;;;;;;9.30;8.40;;;;;;;;;;4914248;29;20056;-70
2022/01/18 03:10:22;;;;;;;11.10;7.25;;;;;;;;;;4929849;29;20044;-69
2022/01/18 03:12:54;;;;;;;8.10;6.25;;;;;;;;;;4915184;29;20051;-69
2022/01/18 03:15:24;;;;;;;7.82;6.90;;;;;;;;;;4914214;29;20052;-69
2022/01/18 03:17:53;;;;;;;17.42;8.93;;;;;;;;;;4929583;29;20066;-69
2022/01/18 03:20:25;;;;;;;10.27;7.63;;;;;;;;;;4915420;29;20052;-70
2022/01/18 03:22:55;;;;;;;9.02;7.97;;;;;;;;;;4929954;29;20044;-69
2022/01/18 03:25:29;;;;;;;11.40;8.57;;;;;;;;;;4929253;29;20543;-69
2022/01/18 03:28:05;;;;;;;10.50;8.57;;;;;;;;;;4929260;29;20048;-70
2022/01/18 03:30:39;;;;;;;14.53;9.33;;;;;;;;;;4915018;29;20100;-70
2022/01/18 03:33:13;;;;;;;14.05;9.52;;;;;;;;;;4929346;29;20363;-69
2022/01/18 03:35:45;;;;;;;12.00;10.37;;;;;;;;;;4918120;29;20136;-69
2022/01/18 03:38:17;;;;;;;12.23;10.18;;;;;;;;;;4913424;29;20139;-70
2022/01/18 03:40:46;;;;;;;10.75;8.63;;;;;;;;;;4928958;29;20552;-69
2022/01/18 03:43:15;;;;;;;11.57;8.48;;;;;;;;;;4928996;29;20056;-69
2022/01/18 03:45:46;;;;;;;13.73;10.60;;;;;;;;;;4929220;29;20473;-69
2022/01/18 03:48:29;;;;;;;16.35;8.95;;;;;;;;;;4928921;29;20048;-71
2022/01/18 03:50:59;;;;;;;13.70;10.48;;;;;;;;;;4914084;29;20087;-71
2022/01/18 03:53:29;;;;;;;12.98;9.45;;;;;;;;;;4929223;29;20048;-72
2022/01/18 03:55:59;;;;;;;14.25;10.77;;;;;;;;;;4914503;29;20587;-71
2022/01/18 03:58:27;;;;;;;18.67;11.15;;;;;;;;;;4929465;29;20055;-71
2022/01/18 04:00:58;;;;;;;12.63;9.43;;;;;;;;;;4913590;29;20055;-71
2022/01/18 04:03:26;;;;;;;12.95;10.35;;;;;;;;;;4930416;29;20103;-71
2022/01/18 04:05:53;;;;;;;23.17;11.68;;;;;;;;;;4912872;29;20056;-71
2022/01/18 04:08:22;;;;;;;14.10;9.60;;;;;;;;;;4933012;29;20063;-71
2022/01/18 04:10:50;;;;;;;12.27;9.93;;;;;;;;;;4931998;29;20497;-71
2022/01/18 04:13:17;;;;;;;13.15;9.93;;;;;;;;;;4918037;29;20064;-71
2022/01/18 04:15:44;;;;;;;11.80;9.38;;;;;;;;;;4918694;29;20059;-71
2022/01/18 04:28:55;;;;;;;17.08;9.75;;;;;;;;;;4930972;29;20043;-70
2022/01/18 04:31:24;;;;;;;15.68;11.18;;;;;;;;;;4932755;29;20059;-70
2022/01/18 04:33:52;;;;;;;13.20;10.43;;;;;;;;;;4932406;29;20052;-71
2022/01/18 04:36:19;;;;;;;12.68;11.13;;;;;;;;;;4917958;29;20047;-71
2022/01/18 04:38:46;;;;;;;14.70;10.43;;;;;;;;;;4932581;29;20398;-70
2022/01/18 04:41:16;;;;;;;14.80;10.05;;;;;;;;;;4917832;29;20080;-70
2022/01/18 04:49:00;;;;;;;13.48;10.23;;;;;;;;;;4936334;29;20054;-70
2022/01/18 04:51:27;;;;;;;15.98;12.15;;;;;;;;;;4936566;29;20048;-71
2022/01/18 04:53:57;;;;;;;13.90;10.98;;;;;;;;;;4935740;29;20420;-70
2022/01/18 04:58:57;;;;;;;15.25;11.68;;;;;;;;;;4934753;29;20051;-70
2022/01/18 05:01:23;;;;;;;17.40;11.55;;;;;;;;;;4929798;29;20127;-71
2022/01/18 05:03:51;;;;;;;15.55;11.77;;;;;;;;;;4930108;29;20516;-71
2022/01/18 05:06:22;;;;;;;15.25;12.57;;;;;;;;;;4935490;29;20055;-71
2022/01/18 05:08:49;;;;;;;16.27;11.88;;;;;;;;;;4936274;29;20056;-72
2022/01/18 05:11:19;;;;;;;17.63;12.55;;;;;;;;;;4936655;29;20073;-71
2022/01/18 05:19:24;;;;;;;13.68;11.75;;;;;;;;;;4936740;29;20669;-71
2022/01/18 05:24:26;;;;;;;17.27;11.48;;;;;;;;;;4936717;29;20058;-71
2022/01/18 05:26:54;;;;;;;19.52;9.65;;;;;;;;;;4935051;29;20051;-72
2022/01/18 05:29:21;;;;;;;13.30;9.18;;;;;;;;;;4936372;29;20056;-71
2022/01/18 05:31:49;;;;;;;9.98;8.93;;;;;;;;;;4936039;29;20047;-71
2022/01/18 05:34:16;;;;;;;12.27;9.55;;;;;;;;;;4934421;29;20083;-72
2022/01/18 05:36:43;;;;;;;11.63;8.77;;;;;;;;;;4934928;29;20048;-71
2022/01/18 05:39:12;;;;;;;13.85;8.95;;;;;;;;;;4934576;29;20048;-72
2022/01/18 05:41:41;;;;;;;15.93;9.50;;;;;;;;;;4934832;29;20047;-72
2022/01/18 05:44:08;;;;;;;12.98;8.90;;;;;;;;;;4933526;29;20159;-71
2022/01/18 05:46:35;;;;;;;10.95;8.27;;;;;;;;;;4934547;29;20056;-71
2022/01/18 05:49:03;;;;;;;11.45;7.82;;;;;;;;;;4935779;29;20059;-71
2022/01/18 05:51:31;;;;;;;11.40;8.35;;;;;;;;;;4934279;29;20135;-71
2022/01/18 05:53:58;;;;;;;10.45;8.02;;;;;;;;;;4934265;29;20043;-71
2022/01/18 05:56:29;;;;;;;10.43;6.82;;;;;;;;;;4934616;29;20051;-70
2022/01/18 05:59:01;;;;;;;8.20;6.97;;;;;;;;;;4934284;29;20099;-70
2022/01/18 06:01:33;;;;;;;13.10;8.60;;;;;;;;;;4935302;29;20526;-69
2022/01/18 06:09:14;;;;;;;16.23;10.75;;;;;;;;;;4935438;29;20090;-73
2022/01/18 06:11:41;;;;;;;16.50;11.38;;;;;;;;;;4933756;29;20050;-72
2022/01/18 06:14:08;;;;;;;18.13;12.82;;;;;;;;;;4934277;29;20556;-71
2022/01/18 06:16:35;;;;;;;16.95;12.23;;;;;;;;;;4935242;29;20420;-73
2022/01/18 06:19:02;;;;;;;16.48;11.40;;;;;;;;;;4918084;29;20052;-71
2022/01/18 06:21:29;;;;;;;18.27;13.50;;;;;;;;;;4934037;29;20051;-71
2022/01/18 06:23:57;;;;;;;18.83;13.60;;;;;;;;;;4934854;29;20574;-72
2022/01/18 06:26:24;;;;;;;20.15;14.02;;;;;;;;;;4934325;29;20051;-71
2022/01/18 06:28:51;;;;;;;18.52;13.18;;;;;;;;;;4935318;29;20047;-72
2022/01/18 06:31:18;;;;;;;17.60;13.57;;;;;;;;;;4934510;29;20055;-72
2022/01/18 06:33:45;;;;;;;24.85;14.38;;;;;;;;;;4935113;29;20062;-73
2022/01/18 06:36:13;;;;;;;20.48;12.80;;;;;;;;;;4937083;29;20094;-74
2022/01/18 06:38:40;;;;;;;18.05;14.13;;;;;;;;;;4934587;29;20044;-72
2022/01/18 06:41:07;;;;;;;20.60;13.77;;;;;;;;;;4935453;29;20051;-72
2022/01/18 06:43:34;;;;;;;26.42;13.73;;;;;;;;;;4935486;29;20075;-73
2022/01/18 06:46:01;;;;;;;23.33;13.88;;;;;;;;;;4943538;29;20055;-73
2022/01/18 06:48:28;;;;;;;21.65;15.48;;;;;;;;;;4936920;29;20086;-73
2022/01/18 06:50:55;;;;;;;21.33;17.40;;;;;;;;;;4936111;29;20127;-72
2022/01/18 06:53:22;;;;;;;28.00;17.65;;;;;;;;;;4942458;29;20051;-73
2022/01/18 06:55:53;;;;;;;31.27;18.63;;;;;;;;;;4923304;29;20040;-73
2022/01/18 06:58:21;;;;;;;29.65;19.23;;;;;;;;;;4937340;29;20059;-73
2022/01/18 07:00:48;;;;;;;26.52;17.15;;;;;;;;;;4936163;29;20142;-73
2022/01/18 07:03:17;;;;;;;23.58;16.60;;;;;;;;;;4934524;29;20130;-72
2022/01/18 07:05:44;;;;;;;19.95;15.88;;;;;;;;;;4921653;29;20067;-72
2022/01/18 07:08:15;;;;;;;21.38;14.68;;;;;;;;;;4919311;29;20059;-72
2022/01/18 07:10:42;;;;;;;18.30;12.90;;;;;;;;;;4934314;29;20044;-71
2022/01/18 07:13:11;;;;;;;22.98;13.27;;;;;;;;;;4933593;29;20052;-73
2022/01/18 07:15:38;;;;;;;22.00;13.10;;;;;;;;;;4933137;29;20039;-72
2022/01/18 07:18:06;;;;;;;17.33;11.77;;;;;;;;;;4932303;29;20071;-71
2022/01/18 07:20:34;;;;;;;20.75;12.38;;;;;;;;;;4933582;29;20575;-76
2022/01/18 07:23:01;;;;;;;27.80;17.75;;;;;;;;;;4930797;29;20111;-76
2022/01/18 07:25:29;;;;;;;19.33;15.45;;;;;;;;;;4929904;29;20099;-78
2022/01/18 07:27:56;;;;;;;18.30;14.27;;;;;;;;;;4928192;29;20542;-78
2022/01/18 07:30:32;;;;;;;25.30;14.73;;;;;;;;;;4918219;29;20107;-77
2022/01/18 07:33:08;;;;;;;18.23;13.63;;;;;;;;;;4934774;29;20051;-71
2022/01/18 07:35:35;;;;;;;20.73;14.05;;;;;;;;;;4934322;29;20063;-73
2022/01/18 07:38:12;;;;;;;19.77;13.02;;;;;;;;;;4934669;29;20052;-74
2022/01/18 07:40:41;;;;;;;18.50;12.45;;;;;;;;;;4936652;29;20059;-76
2022/01/18 07:43:10;;;;;;;18.95;12.82;;;;;;;;;;4936696;29;20063;-76
2022/01/18 07:45:38;;;;;;;21.35;14.27;;;;;;;;;;4936877;29;20107;-72
2022/01/18 07:48:06;;;;;;;19.25;13.38;;;;;;;;;;4921392;29;20458;-70
2022/01/18 07:50:35;;;;;;;20.00;14.57;;;;;;;;;;4937907;29;20062;-71
2022/01/18 07:53:03;;;;;;;28.33;15.65;;;;;;;;;;4938052;29;20500;-67
2022/01/18 07:55:30;;;;;;;20.83;13.57;;;;;;;;;;4936880;29;20796;-74
2022/01/18 07:57:59;;;;;;;24.75;12.65;;;;;;;;;;4934877;29;20115;-74
2022/01/18 08:00:27;;;;;;;16.48;11.57;;;;;;;;;;4916486;29;20052;-74
2022/01/18 08:02:54;;;;;;;20.38;13.10;;;;;;;;;;4920714;29;20095;-74
2022/01/18 08:05:22;;;;;;;14.65;11.07;;;;;;;;;;4937489;29;20155;-74
2022/01/18 08:07:49;;;;;;;19.20;12.98;;;;;;;;;;4936795;29;20074;-74
2022/01/18 08:10:18;;;;;;;23.02;14.15;;;;;;;;;;4920255;29;20074;-76
2022/01/18 08:12:46;;;;;;;15.48;11.48;;;;;;;;;;4918484;29;20079;-76
2022/01/18 08:15:17;;;;;;;28.90;11.40;;;;;;;;;;4919796;29;20043;-75
2022/01/18 08:17:53;;;;;;;18.20;12.38;;;;;;;;;;4934934;29;20497;-76
2022/01/18 08:20:21;;;;;;;25.85;12.18;;;;;;;;;;4925104;29;20051;-75
2022/01/18 08:22:49;;;;;;;20.02;13.65;;;;;;;;;;4919436;29;20079;-75
2022/01/18 08:25:16;;;;;;;25.08;15.75;;;;;;;;;;4932573;29;20083;-74
2022/01/18 08:27:45;;;;;;;39.03;19.50;;;;;;;;;;4933946;29;20170;-75
2022/01/18 08:30:13;;;;;;;48.55;25.45;;;;;;;;;;4930002;29;20051;-75
2022/01/18 08:32:41;;;;;;;66.07;30.42;;;;;;;;;;4927683;29;20044;-75
2022/01/18 08:35:09;;;;;;;60.45;33.17;;;;;;;;;;4934683;29;20056;-75
2022/01/18 08:37:36;;;;;;;57.45;35.80;;;;;;;;;;4935379;29;20052;-75
2022/01/18 08:40:04;;;;;;;71.63;37.42;;;;;;;;;;4935228;29;20063;-75
2022/01/18 08:42:31;;;;;;;67.25;39.15;;;;;;;;;;4935181;29;20058;-75
2022/01/18 08:44:59;;;;;;;73.55;39.05;;;;;;;;;;4936499;29;20047;-75
2022/01/18 08:47:26;;;;;;;88.57;45.35;;;;;;;;;;4936511;29;20464;-75
2022/01/18 08:49:53;;;;;;;77.95;42.33;;;;;;;;;;4934444;29;20051;-77
2022/01/18 08:52:21;;;;;;;68.25;37.08;;;;;;;;;;4938402;29;20135;-76
2022/01/18 08:54:48;;;;;;;59.42;34.97;;;;;;;;;;4922548;29;20059;-76
2022/01/18 08:57:16;;;;;;;63.08;37.97;;;;;;;;;;4937567;29;20063;-76
2022/01/18 08:59:44;;;;;;;68.78;38.33;;;;;;;;;;4937926;29;20056;-76
2022/01/18 09:02:12;;;;;;;77.90;41.50;;;;;;;;;;4939598;29;20048;-76
2022/01/18 09:04:39;;;;;;;62.97;35.08;;;;;;;;;;4940371;29;20051;-78
2022/01/18 09:07:08;;;;;;;57.40;34.33;;;;;;;;;;4941702;29;20525;-76
2022/01/18 09:09:38;;;;;;;58.67;35.28;;;;;;;;;;4938639;29;20055;-76
2022/01/18 09:12:13;;;;;;;68.45;36.50;;;;;;;;;;4936345;29;20064;-76
2022/01/18 09:14:40;;;;;;;77.13;41.35;;;;;;;;;;4933984;29;20508;-76
2022/01/18 09:17:07;;;;;;;67.40;36.53;;;;;;;;;;4934985;29;20138;-76
2022/01/18 09:19:34;;;;;;;67.22;36.83;;;;;;;;;;4933740;29;20500;-76
2022/01/18 09:22:03;;;;;;;73.13;40.05;;;;;;;;;;4919548;29;20130;-77
2022/01/18 09:24:31;;;;;;;74.63;40.20;;;;;;;;;;4931196;29;20047;-79
2022/01/18 09:27:00;;;;;;;87.63;43.92;;;;;;;;;;4937998;29;20393;-78
2022/01/18 09:29:29;;;;;;;79.15;43.53;;;;;;;;;;4933336;29;20047;-78
2022/01/18 09:31:57;;;;;;;85.70;43.10;;;;;;;;;;4935413;29;20500;-77
2022/01/18 09:34:24;;;;;;;95.88;42.95;;;;;;;;;;4934357;29;20050;-78
2022/01/18 09:36:51;;;;;;;87.30;49.17;;;;;;;;;;4935012;29;20055;-77
2022/01/18 09:39:18;;;;;;;112.70;60.72;;;;;;;;;;4936016;29;20138;-78
2022/01/18 09:41:50;;;;;;;86.70;42.75;;;;;;;;;;4935833;29;20127;-78
2022/01/18 09:44:18;;;;;;;88.47;45.92;;;;;;;;;;4935562;29;20094;-77
2022/01/18 09:46:48;;;;;;;88.10;45.90;;;;;;;;;;4921783;29;20055;-74
2022/01/18 09:49:17;;;;;;;88.32;49.22;;;;;;;;;;4927704;29;20062;-75
2022/01/18 09:51:44;;;;;;;85.63;46.67;;;;;;;;;;4918193;29;20079;-74
2022/01/18 09:54:12;;;;;;;88.75;44.65;;;;;;;;;;4931273;29;20052;-73
2022/01/18 09:56:39;;;;;;;92.55;50.10;;;;;;;;;;4933691;29;20061;-75
2022/01/18 09:59:06;;;;;;;86.88;48.35;;;;;;;;;;4934275;29;20111;-75
2022/01/18 10:01:34;;;;;;;82.05;48.38;;;;;;;;;;4933331;29;20048;-73
2022/01/18 10:04:22;;;;;;;109.75;48.65;;;;;;;;;;4933640;29;20099;-76
2022/01/18 10:06:55;;;;;;;92.80;47.35;;;;;;;;;;4934649;29;20074;-75
2022/01/18 10:09:23;;;;;;;106.93;51.35;;;;;;;;;;4928000;29;20139;-75
2022/01/18 10:11:59;;;;;;;98.28;48.47;;;;;;;;;;4934164;29;20043;-77
2022/01/18 10:14:27;;;;;;;100.55;52.53;;;;;;;;;;4934116;29;20055;-75
2022/01/18 10:16:54;;;;;;;110.78;53.70;;;;;;;;;;4934649;29;20043;-74
2022/01/18 10:19:37;;;;;;;99.93;50.53;;;;;;;;;;4933654;29;20058;-75
2022/01/18 10:22:12;;;;;;;109.18;52.20;;;;;;;;;;4918497;29;20095;-75
2022/01/18 10:24:39;;;;;;;100.75;48.75;;;;;;;;;;4942665;29;20051;-75
2022/01/18 10:27:06;;;;;;;93.93;48.38;;;;;;;;;;4917593;29;20044;-75
2022/01/18 10:29:48;;;;;;;102.65;51.90;;;;;;;;;;4933912;29;20056;-75
2022/01/18 10:32:20;;;;;;;89.43;48.90;;;;;;;;;;4917841;29;20111;-75
2022/01/18 10:37:25;;;;;;;88.68;45.13;;;;;;;;;;4934237;29;20047;-75
2022/01/18 10:39:57;;;;;;;95.28;48.58;;;;;;;;;;4934965;29;20071;-75
2022/01/18 10:42:26;;;;;;;84.72;47.38;;;;;;;;;;4934623;29;20054;-73
2022/01/18 10:45:03;;;;;;;86.10;43.20;;;;;;;;;;4934332;29;20052;-73
2022/01/18 10:47:32;;;;;;;93.88;49.08;;;;;;;;;;4934678;29;20056;-73
2022/01/18 10:50:07;;;;;;;82.80;51.72;;;;;;;;;;4932646;29;20046;-73
2022/01/18 10:52:49;;;;;;;92.00;47.33;;;;;;;;;;4933179;29;20055;-72
2022/01/18 10:55:19;;;;;;;84.35;45.28;;;;;;;;;;4933078;29;20055;-73
2022/01/18 10:57:46;;;;;;;92.28;51.92;;;;;;;;;;4933771;29;20048;-75
2022/01/18 11:00:17;;;;;;;86.07;46.00;;;;;;;;;;4932277;29;20059;-69
2022/01/18 11:02:48;;;;;;;87.60;47.03;;;;;;;;;;4917342;29;20070;-72
2022/01/18 11:05:19;;;;;;;89.72;46.95;;;;;;;;;;4933040;29;20083;-75
2022/01/18 11:07:48;;;;;;;85.85;47.38;;;;;;;;;;4932600;29;20047;-73
2022/01/18 11:10:17;;;;;;;89.70;49.67;;;;;;;;;;4932460;29;20055;-73
2022/01/18 11:13:04;;;;;;;95.57;47.78;;;;;;;;;;4932742;29;20409;-74
2022/01/18 11:15:33;;;;;;;81.07;49.33;;;;;;;;;;4917721;29;20044;-74
2022/01/18 11:18:03;;;;;;;83.35;47.85;;;;;;;;;;4932666;29;20051;-72
2022/01/18 11:20:33;;;;;;;93.20;52.72;;;;;;;;;;4934520;29;20508;-73
2022/01/18 11:23:00;;;;;;;96.43;48.58;;;;;;;;;;4915084;29;20058;-73
2022/01/18 11:25:29;;;;;;;91.43;47.25;;;;;;;;;;4919850;29;20051;-73
2022/01/18 11:27:58;;;;;;;90.57;53.47;;;;;;;;;;4932554;29;20129;-71
2022/01/18 11:30:31;;;;;;;89.28;50.58;;;;;;;;;;4933652;29;20086;-72
2022/01/18 11:33:01;;;;;;;84.50;46.75;;;;;;;;;;4931318;29;20056;-73
2022/01/18 11:35:45;;;;;;;93.47;52.85;;;;;;;;;;4930682;29;20055;-72
2022/01/18 11:38:23;;;;;;;104.18;53.42;;;;;;;;;;4932217;29;20107;-73
2022/01/18 11:40:57;;;;;;;103.03;52.63;;;;;;;;;;4932249;29;20051;-73
2022/01/18 11:43:36;;;;;;;102.43;55.58;;;;;;;;;;4931629;29;20063;-73
2022/01/18 11:46:25;;;;;;;96.53;53.50;;;;;;;;;;4931380;29;20063;-73
2022/01/18 11:49:05;;;;;;;101.13;57.75;;;;;;;;;;4933634;29;20052;-73
2022/01/18 11:51:48;;;;;;;104.30;55.33;;;;;;;;;;4931700;29;20063;-73
2022/01/18 12:01:46;;;;;;;95.90;53.47;;;;;;;;;;4734631;23;20138;-73
2022/01/18 12:04:13;;;;;;;96.53;51.70;;;;;;;;;;4868417;29;20402;-74
2022/01/18 12:06:47;;;;;;;97.22;54.92;;;;;;;;;;4891188;29;20056;-74
2022/01/18 12:09:40;;;;;;;85.40;50.50;;;;;;;;;;4861446;29;20489;-75
2022/01/18 12:12:42;;;;;;;95.75;55.28;;;;;;;;;;4894145;29;20097;-73
2022/01/18 12:15:24;;;;;;;91.65;54.25;;;;;;;;;;4892391;29;20052;-74
2022/01/18 12:17:56;;;;;;;94.35;54.05;;;;;;;;;;4877026;29;20525;-76
2022/01/18 12:20:32;;;;;;;96.82;57.50;;;;;;;;;;4875391;29;20593;-75
2022/01/18 12:23:04;;;;;;;101.38;58.40;;;;;;;;;;4877100;29;20071;-75
2022/01/18 12:25:35;;;;;;;98.03;53.45;;;;;;;;;;4885743;29;20654;-75
2022/01/18 12:28:51;;;;;;;111.00;61.60;;;;;;;;;;4896116;29;20045;-75
2022/01/18 12:31:53;;;;;;;103.18;55.80;;;;;;;;;;4897322;29;20105;-75
2022/01/18 12:34:47;;;;;;;100.93;56.88;;;;;;;;;;4898033;29;20585;-72
2022/01/18 12:37:17;;;;;;;94.13;51.95;;;;;;;;;;4896726;29;20524;-75
2022/01/18 12:40:11;;;;;;;88.35;49.88;;;;;;;;;;4897939;29;20060;-75
2022/01/18 12:45:16;;;;;;;86.85;49.78;;;;;;;;;;4882234;29;20052;-75
2022/01/18 12:47:55;;;;;;;87.13;51.97;;;;;;;;;;4893814;29;20052;-72
2022/01/18 12:50:28;;;;;;;88.43;52.85;;;;;;;;;;4896952;29;20076;-75
2022/01/18 12:52:55;;;;;;;91.57;51.73;;;;;;;;;;4882514;29;20073;-75
2022/01/18 12:55:46;;;;;;;94.07;57.70;;;;;;;;;;4898550;29;20045;-75
2022/01/18 12:58:28;;;;;;;94.93;55.75;;;;;;;;;;4893772;29;20064;-72
2022/01/18 13:01:04;;;;;;;94.50;53.78;;;;;;;;;;4896573;29;20147;-69
2022/01/18 13:03:37;;;;;;;92.95;51.33;;;;;;;;;;4894499;29;20076;-76
2022/01/18 13:06:12;;;;;;;89.28;50.50;;;;;;;;;;4893660;29;20587;-72
2022/01/18 13:08:50;;;;;;;90.68;55.97;;;;;;;;;;4877826;29;20144;-72
2022/01/18 13:11:19;;;;;;;92.40;54.17;;;;;;;;;;4884808;29;20075;-76
2022/01/18 13:25:07;;;;;;;87.88;51.83;;;;;;;;;;4892402;29;20462;-76
2022/01/18 13:27:39;;;;;;;93.00;54.65;;;;;;;;;;4890909;29;20048;-77
2022/01/18 13:30:21;;;;;;;87.38;52.10;;;;;;;;;;4880985;29;20056;-76
2022/01/18 13:32:50;;;;;;;83.55;50.97;;;;;;;;;;4884965;29;20076;-76
2022/01/18 13:35:24;;;;;;;85.95;51.88;;;;;;;;;;4895675;29;20049;-76
2022/01/18 13:37:51;;;;;;;96.97;53.72;;;;;;;;;;4896517;29;20435;-76
2022/01/18 13:40:20;;;;;;;95.22;53.45;;;;;;;;;;4897983;29;20136;-76
2022/01/18 13:43:03;;;;;;;86.68;53.05;;;;;;;;;;4896304;29;20105;-76
2022/01/18 13:45:31;;;;;;;89.30;52.22;;;;;;;;;;4882212;29;20060;-76
2022/01/18 13:47:59;;;;;;;95.15;54.45;;;;;;;;;;4885235;29;20054;-76
2022/01/18 13:50:54;;;;;;;94.40;55.95;;;;;;;;;;4909091;29;20055;-77
2022/01/18 13:53:33;;;;;;;83.40;49.40;;;;;;;;;;4865140;29;20401;-76
2022/01/18 13:56:17;;;;;;;87.93;50.67;;;;;;;;;;4881840;29;20059;-76
2022/01/18 13:58:51;;;;;;;88.57;53.03;;;;;;;;;;4891987;29;20516;-76
2022/01/18 14:01:26;;;;;;;89.65;50.67;;;;;;;;;;4878653;29;20064;-74
2022/01/18 14:03:56;;;;;;;83.95;47.53;;;;;;;;;;4900102;29;20052;-75
2022/01/18 14:06:38;;;;;;;91.47;54.58;;;;;;;;;;4880967;29;20526;-75
2022/01/18 14:09:05;;;;;;;93.55;54.25;;;;;;;;;;4875590;29;20056;-74
2022/01/18 14:11:35;;;;;;;91.57;54.70;;;;;;;;;;4893928;29;20056;-74
2022/01/18 14:14:24;;;;;;;92.57;56.17;;;;;;;;;;4896986;29;20061;-75
2022/01/18 14:16:53;;;;;;;100.75;55.05;;;;;;;;;;4892625;29;20533;-74
2022/01/18 14:19:31;;;;;;;92.65;53.78;;;;;;;;;;4896164;29;20147;-74
2022/01/18 14:22:01;;;;;;;93.65;54.60;;;;;;;;;;4896438;29;20405;-74
2022/01/18 14:24:39;;;;;;;95.72;55.22;;;;;;;;;;4898018;29;20055;-74
2022/01/18 14:27:10;;;;;;;95.85;56.10;;;;;;;;;;4897626;29;20056;-75
2022/01/18 14:29:43;;;;;;;87.32;53.63;;;;;;;;;;4893306;29;20063;-75
2022/01/18 14:32:10;;;;;;;94.22;53.20;;;;;;;;;;4896932;29;20066;-75
2022/01/18 14:34:44;;;;;;;93.15;49.80;;;;;;;;;;4888931;29;20565;-74
2022/01/18 14:37:13;;;;;;;91.90;55.05;;;;;;;;;;4883889;29;20059;-74
2022/01/18 14:39:57;;;;;;;91.53;54.83;;;;;;;;;;4868136;29;20140;-75
2022/01/18 14:42:27;;;;;;;88.93;51.60;;;;;;;;;;4892017;29;20073;-75
2022/01/18 14:45:19;;;;;;;92.95;56.38;;;;;;;;;;4896153;29;20120;-76
2022/01/18 14:47:46;;;;;;;94.65;53.80;;;;;;;;;;4880043;29;20052;-73
2022/01/18 14:50:23;;;;;;;92.25;51.88;;;;;;;;;;4892451;29;20584;-73
2022/01/18 14:52:51;;;;;;;97.97;52.05;;;;;;;;;;4903290;29;20064;-73
2022/01/18 14:55:19;;;;;;;95.43;55.67;;;;;;;;;;4886472;29;20121;-74
2022/01/18 14:57:47;;;;;;;101.95;53.20;;;;;;;;;;4894687;29;20064;-74
2022/01/18 15:00:16;;;;;;;95.50;53.67;;;;;;;;;;4894576;29;20052;-73
2022/01/18 15:02:44;;;;;;;94.97;55.38;;;;;;;;;;4878901;29;20060;-74
2022/01/18 15:05:11;;;;;;;96.60;57.97;;;;;;;;;;4894609;29;20451;-74
2022/01/18 15:07:39;;;;;;;92.18;53.15;;;;;;;;;;4872413;29;20594;-75
2022/01/18 15:10:07;;;;;;;97.07;53.38;;;;;;;;;;4894620;29;20052;-75
2022/01/18 15:12:35;;;;;;;87.10;51.20;;;;;;;;;;4878804;29;20048;-76
2022/01/18 15:15:04;;;;;;;95.03;56.63;;;;;;;;;;4894241;29;20091;-75
2022/01/18 15:17:31;;;;;;;103.25;53.38;;;;;;;;;;4894926;29;20139;-75
2022/01/18 15:19:58;;;;;;;89.40;52.05;;;;;;;;;;4879679;29;20138;-74
2022/01/18 15:22:26;;;;;;;90.90;54.47;;;;;;;;;;4879410;29;20143;-75
2022/01/18 15:24:54;;;;;;;95.28;55.20;;;;;;;;;;4895787;29;20052;-75
2022/01/18 15:27:21;;;;;;;100.78;55.08;;;;;;;;;;4896825;29;20053;-76
2022/01/18 15:29:48;;;;;;;93.75;51.90;;;;;;;;;;4895920;29;20052;-75
2022/01/18 15:32:16;;;;;;;97.57;53.30;;;;;;;;;;4895666;29;20171;-75
2022/01/18 15:34:43;;;;;;;98.45;56.72;;;;;;;;;;4894770;29;20128;-75
2022/01/18 15:37:12;;;;;;;93.97;53.90;;;;;;;;;;4872323;29;20056;-75
2022/01/18 15:39:39;;;;;;;97.20;57.35;;;;;;;;;;4894453;29;20506;-74
2022/01/18 15:42:06;;;;;;;102.78;57.13;;;;;;;;;;4894852;29;20060;-74
2022/01/18 15:44:33;;;;;;;98.97;54.15;;;;;;;;;;4879465;29;20045;-71
2022/01/18 15:47:00;;;;;;;103.03;57.72;;;;;;;;;;4896415;29;20099;-71
2022/01/18 15:49:27;;;;;;;100.80;56.38;;;;;;;;;;4895929;29;20041;-72
2022/01/18 15:51:54;;;;;;;100.10;58.60;;;;;;;;;;4878941;29;20099;-71
2022/01/18 15:54:21;;;;;;;99.35;56.70;;;;;;;;;;4895029;29;20056;-71
2022/01/18 15:56:49;;;;;;;99.60;59.83;;;;;;;;;;4894350;29;20059;-72
2022/01/18 15:59:17;;;;;;;104.10;56.22;;;;;;;;;;4897552;29;20541;-71
2022/01/18 16:01:44;;;;;;;102.13;56.40;;;;;;;;;;4887513;29;20061;-71
2022/01/18 16:04:12;;;;;;;110.60;55.83;;;;;;;;;;4864667;29;20045;-71
2022/01/18 16:06:38;;;;;;;99.80;55.55;;;;;;;;;;4880644;29;20096;-70
2022/01/18 16:09:06;;;;;;;97.20;55.08;;;;;;;;;;4892466;29;20049;-71
2022/01/18 16:11:36;;;;;;;102.47;56.08;;;;;;;;;;4888569;29;20053;-71
2022/01/18 16:14:03;;;;;;;86.13;50.83;;;;;;;;;;4888251;29;20063;-71
2022/01/18 16:16:30;;;;;;;100.97;54.35;;;;;;;;;;4886203;29;20510;-71
2022/01/18 16:18:57;;;;;;;95.20;56.92;;;;;;;;;;4884899;29;20087;-70